sensor_id;sensor_type;location;lat;lon;timestamp;pressure;altitude;pressure_sealevel;temperature;humidity
70248;BME280;57641;51.416;5.506;2023-01-25T00:00:08;103825.97;;;7.48;51.47
70248;BME280;57641;51.416;5.506;2023-01-25T00:02:37;103814.63;;;7.45;51.76
70248;BME280;57641;51.416;5.506;2023-01-25T00:05:03;103819.06;;;7.44;51.54
70248;BME280;57641;51.416;5.506;2023-01-25T00:07:28;103812.94;;;7.42;51.97
70248;BME280;57641;51.416;5.506;2023-01-25T00:09:54;103808.22;;;7.50;51.79
70248;BME280;57641;51.416;5.506;2023-01-25T00:12:19;103812.53;;;7.53;51.68
70248;BME280;57641;51.416;5.506;2023-01-25T00:14:45;103817.16;;;7.48;51.65
70248;BME280;57641;51.416;5.506;2023-01-25T00:17:10;103811.22;;;7.41;51.50
70248;BME280;57641;51.416;5.506;2023-01-25T00:19:37;103810.34;;;7.41;51.53
70248;BME280;57641;51.416;5.506;2023-01-25T00:22:02;103818.31;;;7.41;52.08
70248;BME280;57641;51.416;5.506;2023-01-25T00:24:28;103814.09;;;7.35;51.90
70248;BME280;57641;51.416;5.506;2023-01-25T00:26:55;103815.06;;;7.34;51.96
70248;BME280;57641;51.416;5.506;2023-01-25T00:29:20;103813.25;;;7.35;51.60
70248;BME280;57641;51.416;5.506;2023-01-25T00:31:52;103816.84;;;7.34;51.51
70248;BME280;57641;51.416;5.506;2023-01-25T00:39:30;103812.41;;;7.11;52.16
70248;BME280;57641;51.416;5.506;2023-01-25T00:41:55;103809.03;;;7.07;51.81
70248;BME280;57641;51.416;5.506;2023-01-25T00:44:21;103808.88;;;7.10;52.50
70248;BME280;57641;51.416;5.506;2023-01-25T00:46:46;103800.94;;;7.10;52.04
70248;BME280;57641;51.416;5.506;2023-01-25T00:49:20;103812.41;;;7.11;51.63
70248;BME280;57641;51.416;5.506;2023-01-25T00:51:47;103803.47;;;7.13;51.35
70248;BME280;57641;51.416;5.506;2023-01-25T00:54:12;103810.44;;;7.16;52.30
70248;BME280;57641;51.416;5.506;2023-01-25T00:56:38;103801.78;;;7.11;52.34
70248;BME280;57641;51.416;5.506;2023-01-25T00:59:04;103799.00;;;7.14;52.13
70248;BME280;57641;51.416;5.506;2023-01-25T01:01:30;103801.75;;;7.12;52.49
70248;BME280;57641;51.416;5.506;2023-01-25T01:03:56;103796.22;;;7.18;52.12
70248;BME280;57641;51.416;5.506;2023-01-25T01:06:22;103794.34;;;7.20;51.93
70248;BME280;57641;51.416;5.506;2023-01-25T01:08:47;103794.53;;;7.16;51.60
70248;BME280;57641;51.416;5.506;2023-01-25T01:11:13;103792.69;;;7.18;51.87
70248;BME280;57641;51.416;5.506;2023-01-25T01:13:39;103794.34;;;7.20;52.29
70248;BME280;57641;51.416;5.506;2023-01-25T01:16:06;103793.56;;;7.18;52.82
70248;BME280;57641;51.416;5.506;2023-01-25T01:18:38;103789.03;;;7.20;52.81
70248;BME280;57641;51.416;5.506;2023-01-25T01:21:05;103785.47;;;7.21;52.68
70248;BME280;57641;51.416;5.506;2023-01-25T01:23:34;103782.81;;;7.21;52.93
70248;BME280;57641;51.416;5.506;2023-01-25T01:26:08;103788.25;;;7.18;52.77
70248;BME280;57641;51.416;5.506;2023-01-25T01:28:34;103786.34;;;7.22;52.80
70248;BME280;57641;51.416;5.506;2023-01-25T01:31:12;103786.63;;;7.14;52.66
70248;BME280;57641;51.416;5.506;2023-01-25T01:33:38;103787.56;;;7.13;52.59
70248;BME280;57641;51.416;5.506;2023-01-25T01:36:12;103790.13;;;7.15;52.32
70248;BME280;57641;51.416;5.506;2023-01-25T01:38:38;103782.25;;;7.13;52.56
70248;BME280;57641;51.416;5.506;2023-01-25T01:41:05;103789.28;;;7.14;52.54
70248;BME280;57641;51.416;5.506;2023-01-25T01:43:32;103788.34;;;7.15;52.63
70248;BME280;57641;51.416;5.506;2023-01-25T01:45:59;103790.94;;;7.17;52.04
70248;BME280;57641;51.416;5.506;2023-01-25T01:54:06;103795.75;;;7.07;52.06
70248;BME280;57641;51.416;5.506;2023-01-25T01:56:42;103789.63;;;7.05;52.19
70248;BME280;57641;51.416;5.506;2023-01-25T01:59:11;103790.38;;;7.09;52.58
70248;BME280;57641;51.416;5.506;2023-01-25T02:01:37;103786.88;;;7.08;52.48
70248;BME280;57641;51.416;5.506;2023-01-25T02:04:05;103785.00;;;7.10;53.01
70248;BME280;57641;51.416;5.506;2023-01-25T02:06:40;103787.72;;;7.09;52.11
70248;BME280;57641;51.416;5.506;2023-01-25T02:09:08;103785.06;;;7.09;52.17
70248;BME280;57641;51.416;5.506;2023-01-25T02:11:35;103782.50;;;7.07;52.11
70248;BME280;57641;51.416;5.506;2023-01-25T02:14:02;103786.94;;;7.07;52.24
70248;BME280;57641;51.416;5.506;2023-01-25T02:16:28;103786.09;;;7.05;52.20
70248;BME280;57641;51.416;5.506;2023-01-25T02:18:56;103782.59;;;7.04;52.10
70248;BME280;57641;51.416;5.506;2023-01-25T02:21:31;103783.59;;;7.02;52.41
70248;BME280;57641;51.416;5.506;2023-01-25T02:24:22;103783.34;;;7.08;52.45
70248;BME280;57641;51.416;5.506;2023-01-25T02:26:50;103780.81;;;7.05;51.65
70248;BME280;57641;51.416;5.506;2023-01-25T02:29:16;103779.16;;;7.02;51.28
70248;BME280;57641;51.416;5.506;2023-01-25T02:31:45;103783.47;;;7.05;51.36
70248;BME280;57641;51.416;5.506;2023-01-25T02:34:11;103784.22;;;7.08;51.60
70248;BME280;57641;51.416;5.506;2023-01-25T02:36:38;103778.41;;;7.20;51.16
70248;BME280;57641;51.416;5.506;2023-01-25T02:39:15;103773.34;;;7.14;50.62
70248;BME280;57641;51.416;5.506;2023-01-25T02:41:53;103767.59;;;7.03;50.95
70248;BME280;57641;51.416;5.506;2023-01-25T02:44:30;103765.03;;;7.02;51.18
70248;BME280;57641;51.416;5.506;2023-01-25T02:46:57;103765.06;;;7.00;51.18
70248;BME280;57641;51.416;5.506;2023-01-25T02:49:23;103765.81;;;7.04;50.94
70248;BME280;57641;51.416;5.506;2023-01-25T02:51:52;103760.59;;;7.02;50.79
70248;BME280;57641;51.416;5.506;2023-01-25T02:54:23;103751.94;;;6.97;50.65
70248;BME280;57641;51.416;5.506;2023-01-25T02:56:50;103755.56;;;6.95;50.65
70248;BME280;57641;51.416;5.506;2023-01-25T02:59:15;103761.72;;;6.95;50.72
70248;BME280;57641;51.416;5.506;2023-01-25T03:01:43;103750.25;;;6.95;50.86
70248;BME280;57641;51.416;5.506;2023-01-25T03:04:10;103760.19;;;6.90;51.50
70248;BME280;57641;51.416;5.506;2023-01-25T03:06:37;103755.75;;;6.90;51.78
70248;BME280;57641;51.416;5.506;2023-01-25T03:09:05;103757.53;;;6.90;51.79
70248;BME280;57641;51.416;5.506;2023-01-25T03:11:32;103756.56;;;6.92;51.13
70248;BME280;57641;51.416;5.506;2023-01-25T03:13:58;103751.31;;;6.91;52.31
70248;BME280;57641;51.416;5.506;2023-01-25T03:16:23;103746.88;;;6.91;51.46
70248;BME280;57641;51.416;5.506;2023-01-25T03:18:53;103745.94;;;6.92;51.85
70248;BME280;57641;51.416;5.506;2023-01-25T03:21:23;103740.56;;;6.94;52.02
70248;BME280;57641;51.416;5.506;2023-01-25T03:24:00;103735.44;;;6.89;52.05
70248;BME280;57641;51.416;5.506;2023-01-25T03:26:28;103733.78;;;6.87;52.17
70248;BME280;57641;51.416;5.506;2023-01-25T03:28:53;103732.91;;;6.86;51.51
70248;BME280;57641;51.416;5.506;2023-01-25T03:31:19;103743.06;;;6.75;51.33
70248;BME280;57641;51.416;5.506;2023-01-25T03:33:45;103732.41;;;6.76;51.80
70248;BME280;57641;51.416;5.506;2023-01-25T03:36:11;103744.66;;;6.79;52.11
70248;BME280;57641;51.416;5.506;2023-01-25T03:38:37;103738.41;;;6.82;52.33
70248;BME280;57641;51.416;5.506;2023-01-25T03:41:03;103724.72;;;6.69;51.80
70248;BME280;57641;51.416;5.506;2023-01-25T03:43:30;103724.78;;;6.67;52.48
70248;BME280;57641;51.416;5.506;2023-01-25T03:45:58;103723.69;;;6.73;51.79
70248;BME280;57641;51.416;5.506;2023-01-25T03:48:25;103716.72;;;6.70;51.95
70248;BME280;57641;51.416;5.506;2023-01-25T03:50:53;103720.25;;;6.71;52.29
70248;BME280;57641;51.416;5.506;2023-01-25T03:53:29;103724.72;;;6.69;52.33
70248;BME280;57641;51.416;5.506;2023-01-25T03:55:58;103722.13;;;6.67;51.81
70248;BME280;57641;51.416;5.506;2023-01-25T03:58:24;103723.00;;;6.68;52.14
70248;BME280;57641;51.416;5.506;2023-01-25T04:00:53;103726.53;;;6.68;52.10
70248;BME280;57641;51.416;5.506;2023-01-25T04:03:20;103723.91;;;6.67;52.02
70248;BME280;57641;51.416;5.506;2023-01-25T04:05:46;103723.91;;;6.67;52.47
70248;BME280;57641;51.416;5.506;2023-01-25T04:08:13;103710.66;;;6.67;52.79
70248;BME280;57641;51.416;5.506;2023-01-25T04:10:38;103711.66;;;6.64;52.11
70248;BME280;57641;51.416;5.506;2023-01-25T04:13:09;103714.25;;;6.66;52.55
70248;BME280;57641;51.416;5.506;2023-01-25T04:15:36;103707.28;;;6.63;52.77
70248;BME280;57641;51.416;5.506;2023-01-25T04:18:01;103704.75;;;6.60;52.44
70248;BME280;57641;51.416;5.506;2023-01-25T04:20:27;103711.06;;;6.56;51.93
70248;BME280;57641;51.416;5.506;2023-01-25T04:22:52;103704.78;;;6.59;52.22
70248;BME280;57641;51.416;5.506;2023-01-25T04:25:18;103710.97;;;6.59;52.49
70248;BME280;57641;51.416;5.506;2023-01-25T04:27:46;103703.00;;;6.36;52.25
70248;BME280;57641;51.416;5.506;2023-01-25T04:30:12;103710.47;;;6.25;53.13
70248;BME280;57641;51.416;5.506;2023-01-25T04:32:37;103704.91;;;6.32;53.48
70248;BME280;57641;51.416;5.506;2023-01-25T04:35:03;103706.41;;;6.40;53.54
70248;BME280;57641;51.416;5.506;2023-01-25T04:37:30;103704.94;;;6.31;52.62
70248;BME280;57641;51.416;5.506;2023-01-25T04:39:55;103699.47;;;6.35;53.31
70248;BME280;57641;51.416;5.506;2023-01-25T04:42:21;103694.00;;;6.40;52.46
70248;BME280;57641;51.416;5.506;2023-01-25T04:44:47;103696.56;;;6.43;52.45
70248;BME280;57641;51.416;5.506;2023-01-25T04:47:12;103695.63;;;6.44;52.98
70248;BME280;57641;51.416;5.506;2023-01-25T04:49:38;103695.56;;;6.46;52.32
70248;BME280;57641;51.416;5.506;2023-01-25T04:52:04;103691.31;;;6.42;52.61
70248;BME280;57641;51.416;5.506;2023-01-25T04:54:29;103689.66;;;6.39;52.52
70248;BME280;57641;51.416;5.506;2023-01-25T04:56:55;103687.97;;;6.36;52.95
70248;BME280;57641;51.416;5.506;2023-01-25T04:59:20;103679.91;;;6.40;53.58
70248;BME280;57641;51.416;5.506;2023-01-25T05:01:46;103678.41;;;6.32;53.67
70248;BME280;57641;51.416;5.506;2023-01-25T05:04:12;103683.53;;;6.37;53.97
70248;BME280;57641;51.416;5.506;2023-01-25T05:06:38;103673.66;;;6.41;53.79
70248;BME280;57641;51.416;5.506;2023-01-25T05:09:04;103673.66;;;6.41;53.05
70248;BME280;57641;51.416;5.506;2023-01-25T05:11:30;103671.97;;;6.40;52.89
70248;BME280;57641;51.416;5.506;2023-01-25T05:13:55;103667.91;;;6.29;52.67
70248;BME280;57641;51.416;5.506;2023-01-25T05:16:21;103673.09;;;6.32;53.24
70248;BME280;57641;51.416;5.506;2023-01-25T05:18:50;103665.81;;;6.39;53.20
70248;BME280;57641;51.416;5.506;2023-01-25T05:21:16;103665.91;;;6.36;53.46
70248;BME280;57641;51.416;5.506;2023-01-25T05:24:00;103667.75;;;6.34;52.98
70248;BME280;57641;51.416;5.506;2023-01-25T05:26:26;103668.59;;;6.34;53.15
70248;BME280;57641;51.416;5.506;2023-01-25T05:29:11;103666.34;;;6.24;53.06
70248;BME280;57641;51.416;5.506;2023-01-25T05:31:36;103670.31;;;6.12;53.41
70248;BME280;57641;51.416;5.506;2023-01-25T05:34:02;103669.41;;;6.13;53.68
70248;BME280;57641;51.416;5.506;2023-01-25T05:36:28;103664.91;;;6.15;53.66
70248;BME280;57641;51.416;5.506;2023-01-25T05:38:54;103670.38;;;6.11;53.83
70248;BME280;57641;51.416;5.506;2023-01-25T05:41:23;103664.84;;;6.17;53.88
70248;BME280;57641;51.416;5.506;2023-01-25T05:43:49;103662.09;;;6.20;54.13
70248;BME280;57641;51.416;5.506;2023-01-25T05:46:15;103678.66;;;6.25;53.82
70248;BME280;57641;51.416;5.506;2023-01-25T05:48:41;103670.69;;;6.26;53.55
70248;BME280;57641;51.416;5.506;2023-01-25T05:51:07;103675.84;;;6.29;53.53
70248;BME280;57641;51.416;5.506;2023-01-25T05:53:32;103660.91;;;6.28;53.21
70248;BME280;57641;51.416;5.506;2023-01-25T05:56:06;103661.81;;;6.27;53.05
70248;BME280;57641;51.416;5.506;2023-01-25T05:58:32;103662.69;;;6.28;52.88
70248;BME280;57641;51.416;5.506;2023-01-25T06:01:02;103659.00;;;6.32;53.53
70248;BME280;57641;51.416;5.506;2023-01-25T06:03:29;103662.00;;;6.23;53.34
70248;BME280;57641;51.416;5.506;2023-01-25T06:06:00;103659.59;;;6.15;52.80
70248;BME280;57641;51.416;5.506;2023-01-25T06:08:31;103664.91;;;6.15;53.21
70248;BME280;57641;51.416;5.506;2023-01-25T06:10:56;103662.09;;;6.20;53.27
70248;BME280;57641;51.416;5.506;2023-01-25T06:13:23;103655.44;;;6.08;52.50
70248;BME280;57641;51.416;5.506;2023-01-25T06:15:53;103656.66;;;6.00;52.96
70248;BME280;57641;51.416;5.506;2023-01-25T06:18:19;103659.28;;;6.00;53.53
70248;BME280;57641;51.416;5.506;2023-01-25T06:20:46;103652.06;;;6.05;53.33
70248;BME280;57641;51.416;5.506;2023-01-25T06:23:14;103657.19;;;6.09;53.20
70248;BME280;57641;51.416;5.506;2023-01-25T06:25:40;103661.38;;;6.15;53.16
70248;BME280;57641;51.416;5.506;2023-01-25T06:28:05;103649.13;;;6.12;52.33
70248;BME280;57641;51.416;5.506;2023-01-25T06:30:31;103652.47;;;5.92;53.06
70248;BME280;57641;51.416;5.506;2023-01-25T06:32:57;103648.00;;;5.94;53.08
70248;BME280;57641;51.416;5.506;2023-01-25T06:35:23;103649.00;;;5.92;53.26
70248;BME280;57641;51.416;5.506;2023-01-25T06:37:48;103643.56;;;5.95;53.24
70248;BME280;57641;51.416;5.506;2023-01-25T06:40:14;103657.53;;;6.00;53.23
70248;BME280;57641;51.416;5.506;2023-01-25T06:42:42;103650.47;;;5.99;52.52
70248;BME280;57641;51.416;5.506;2023-01-25T06:45:12;103655.78;;;5.99;52.58
70248;BME280;57641;51.416;5.506;2023-01-25T06:47:44;103651.41;;;5.98;52.64
70248;BME280;57641;51.416;5.506;2023-01-25T06:50:11;103653.34;;;5.93;52.89
70248;BME280;57641;51.416;5.506;2023-01-25T06:52:37;103649.03;;;5.90;52.47
70248;BME280;57641;51.416;5.506;2023-01-25T06:55:04;103648.91;;;5.93;53.14
70248;BME280;57641;51.416;5.506;2023-01-25T06:57:32;103654.38;;;5.89;52.88
70248;BME280;57641;51.416;5.506;2023-01-25T06:59:59;103659.00;;;5.82;53.50
70248;BME280;57641;51.416;5.506;2023-01-25T07:02:25;103654.72;;;5.78;53.50
70248;BME280;57641;51.416;5.506;2023-01-25T07:04:50;103649.28;;;5.83;53.98
70248;BME280;57641;51.416;5.506;2023-01-25T07:07:16;103651.13;;;5.81;53.18
70248;BME280;57641;51.416;5.506;2023-01-25T07:09:44;103648.41;;;5.82;53.50
70248;BME280;57641;51.416;5.506;2023-01-25T07:12:10;103648.47;;;5.81;53.79
70248;BME280;57641;51.416;5.506;2023-01-25T07:14:36;103645.56;;;5.88;53.67
70248;BME280;57641;51.416;5.506;2023-01-25T07:17:01;103652.56;;;5.91;53.63
70248;BME280;57641;51.416;5.506;2023-01-25T07:19:27;103654.47;;;5.86;53.30
70248;BME280;57641;51.416;5.506;2023-01-25T07:21:52;103659.72;;;5.87;53.86
70248;BME280;57641;51.416;5.506;2023-01-25T07:24:18;103649.28;;;5.83;53.34
70248;BME280;57641;51.416;5.506;2023-01-25T07:26:45;103649.59;;;5.74;53.55
70248;BME280;57641;51.416;5.506;2023-01-25T07:29:15;103642.16;;;5.60;53.39
70248;BME280;57641;51.416;5.506;2023-01-25T07:31:42;103644.84;;;5.59;53.75
70248;BME280;57641;51.416;5.506;2023-01-25T07:34:11;103646.81;;;5.52;53.62
70248;BME280;57641;51.416;5.506;2023-01-25T07:36:39;103645.56;;;5.64;54.00
70248;BME280;57641;51.416;5.506;2023-01-25T07:39:05;103640.03;;;5.70;53.70
70248;BME280;57641;51.416;5.506;2023-01-25T07:41:31;103640.78;;;5.73;53.79
70248;BME280;57641;51.416;5.506;2023-01-25T07:43:57;103635.16;;;5.82;53.34
70248;BME280;57641;51.416;5.506;2023-01-25T07:46:22;103638.69;;;5.83;53.00
70248;BME280;57641;51.416;5.506;2023-01-25T07:48:50;103643.03;;;5.85;53.19
70248;BME280;57641;51.416;5.506;2023-01-25T07:51:19;103636.81;;;5.86;53.25
70248;BME280;57641;51.416;5.506;2023-01-25T07:53:51;103632.59;;;5.81;53.29
70248;BME280;57641;51.416;5.506;2023-01-25T07:56:19;103636.19;;;5.78;53.60
70248;BME280;57641;51.416;5.506;2023-01-25T07:58:46;103631.78;;;5.79;53.64
70248;BME280;57641;51.416;5.506;2023-01-25T08:01:14;103627.22;;;5.82;53.10
70248;BME280;57641;51.416;5.506;2023-01-25T08:03:42;103636.09;;;5.81;53.37
70248;BME280;57641;51.416;5.506;2023-01-25T08:06:08;103628.00;;;5.86;53.16
70248;BME280;57641;51.416;5.506;2023-01-25T08:08:40;103633.94;;;5.68;53.52
70248;BME280;57641;51.416;5.506;2023-01-25T08:11:15;103635.91;;;5.61;54.32
70248;BME280;57641;51.416;5.506;2023-01-25T08:13:42;103634.31;;;5.57;54.43
70248;BME280;57641;51.416;5.506;2023-01-25T08:16:24;103634.34;;;5.56;53.95
70248;BME280;57641;51.416;5.506;2023-01-25T08:18:56;103631.66;;;5.57;54.44
70248;BME280;57641;51.416;5.506;2023-01-25T08:21:24;103622.94;;;5.55;53.72
70248;BME280;57641;51.416;5.506;2023-01-25T08:23:54;103623.75;;;5.56;53.92
70248;BME280;57641;51.416;5.506;2023-01-25T08:26:27;103621.44;;;5.46;53.89
70248;BME280;57641;51.416;5.506;2023-01-25T08:28:54;103623.13;;;5.49;54.80
70248;BME280;57641;51.416;5.506;2023-01-25T08:31:22;103628.50;;;5.46;54.34
70248;BME280;57641;51.416;5.506;2023-01-25T08:33:49;103625.78;;;5.49;54.14
70248;BME280;57641;51.416;5.506;2023-01-25T08:36:17;103625.69;;;5.50;54.25
70248;BME280;57641;51.416;5.506;2023-01-25T08:38:55;103623.88;;;5.52;54.00
70248;BME280;57641;51.416;5.506;2023-01-25T08:41:21;103618.72;;;5.49;53.99
70248;BME280;57641;51.416;5.506;2023-01-25T08:43:50;103616.44;;;5.39;54.28
70248;BME280;57641;51.416;5.506;2023-01-25T08:46:15;103607.34;;;5.46;54.40
70248;BME280;57641;51.416;5.506;2023-01-25T08:48:41;103610.06;;;5.44;54.64
70248;BME280;57641;51.416;5.506;2023-01-25T08:51:15;103601.97;;;5.49;54.38
70248;BME280;57641;51.416;5.506;2023-01-25T08:53:41;103610.09;;;5.43;54.80
70248;BME280;57641;51.416;5.506;2023-01-25T08:56:09;103610.53;;;5.56;55.54
70248;BME280;57641;51.416;5.506;2023-01-25T08:58:41;103622.69;;;5.61;54.72
70248;BME280;57641;51.416;5.506;2023-01-25T09:01:12;103621.78;;;5.62;54.25
70248;BME280;57641;51.416;5.506;2023-01-25T09:03:40;103614.44;;;5.70;54.00
70248;BME280;57641;51.416;5.506;2023-01-25T09:06:07;103600.59;;;5.62;53.46
70248;BME280;57641;51.416;5.506;2023-01-25T09:08:33;103607.78;;;5.59;53.65
70248;BME280;57641;51.416;5.506;2023-01-25T09:11:09;103610.53;;;5.56;53.87
70248;BME280;57641;51.416;5.506;2023-01-25T09:13:34;103595.91;;;5.45;53.62
70248;BME280;57641;51.416;5.506;2023-01-25T09:16:08;103598.38;;;5.50;53.99
70248;BME280;57641;51.416;5.506;2023-01-25T09:18:40;103595.84;;;5.47;54.46
70248;BME280;57641;51.416;5.506;2023-01-25T09:21:10;103589.72;;;5.45;54.08
70248;BME280;57641;51.416;5.506;2023-01-25T09:23:37;103588.94;;;5.43;53.88
70248;BME280;57641;51.416;5.506;2023-01-25T09:26:04;103589.69;;;5.46;53.59
70248;BME280;57641;51.416;5.506;2023-01-25T09:28:36;103588.13;;;5.41;54.05
70248;BME280;57641;51.416;5.506;2023-01-25T09:31:04;103589.09;;;5.38;54.03
70248;BME280;57641;51.416;5.506;2023-01-25T09:33:33;103587.00;;;5.48;54.23
70248;BME280;57641;51.416;5.506;2023-01-25T09:36:00;103582.28;;;5.56;54.07
70248;BME280;57641;51.416;5.506;2023-01-25T09:38:28;103583.13;;;5.58;54.05
70248;BME280;57641;51.416;5.506;2023-01-25T09:41:10;103577.47;;;5.67;53.97
70248;BME280;57641;51.416;5.506;2023-01-25T09:49:18;103586.47;;;5.63;53.50
70248;BME280;57641;51.416;5.506;2023-01-25T09:51:56;103594.47;;;5.35;53.74
70248;BME280;57641;51.416;5.506;2023-01-25T09:54:26;103590.75;;;5.41;54.02
70248;BME280;57641;51.416;5.506;2023-01-25T09:56:53;103595.41;;;5.34;54.19
70248;BME280;57641;51.416;5.506;2023-01-25T09:59:25;103588.03;;;5.44;54.12
70248;BME280;57641;51.416;5.506;2023-01-25T10:02:08;103587.09;;;5.45;53.84
70248;BME280;57641;51.416;5.506;2023-01-25T10:04:40;103590.44;;;5.50;53.65
70248;BME280;57641;51.416;5.506;2023-01-25T10:10:03;103587.09;;;5.45;54.03
70248;BME280;57641;51.416;5.506;2023-01-25T10:12:35;103585.97;;;5.52;54.14
70248;BME280;57641;51.416;5.506;2023-01-25T10:15:02;103581.00;;;5.43;53.94
70248;BME280;57641;51.416;5.506;2023-01-25T10:17:38;103578.44;;;5.15;53.70
70248;BME280;57641;51.416;5.506;2023-01-25T10:20:09;103571.56;;;5.09;54.56
70248;BME280;57641;51.416;5.506;2023-01-25T10:25:34;103565.22;;;5.15;54.91
70248;BME280;57641;51.416;5.506;2023-01-25T10:30:55;103569.63;;;4.88;55.59
70248;BME280;57641;51.416;5.506;2023-01-25T10:33:22;103565.69;;;5.01;55.07
70248;BME280;57641;51.416;5.506;2023-01-25T10:35:48;103561.75;;;5.13;55.41
70248;BME280;57641;51.416;5.506;2023-01-25T10:38:23;103559.84;;;5.18;54.64
70248;BME280;57641;51.416;5.506;2023-01-25T10:43:27;103545.03;;;5.37;54.31
70248;BME280;57641;51.416;5.506;2023-01-25T10:45:53;103533.38;;;5.43;54.48
70248;BME280;57641;51.416;5.506;2023-01-25T10:48:23;103535.69;;;5.52;54.16
70248;BME280;57641;51.416;5.506;2023-01-25T10:50:53;103527.41;;;5.61;54.30
70248;BME280;57641;51.416;5.506;2023-01-25T10:53:36;103513.03;;;5.68;53.76
70248;BME280;57641;51.416;5.506;2023-01-25T10:58:41;103503.31;;;5.69;53.08
70248;BME280;57641;51.416;5.506;2023-01-25T11:01:30;103498.69;;;5.75;53.13
70248;BME280;57641;51.416;5.506;2023-01-25T11:03:58;103499.53;;;5.76;53.07
70248;BME280;57641;51.416;5.506;2023-01-25T11:06:37;103490.66;;;5.77;53.27
70248;BME280;57641;51.416;5.506;2023-01-25T11:11:57;103484.16;;;5.62;53.39
70248;BME280;57641;51.416;5.506;2023-01-25T11:14:26;103479.72;;;5.63;53.72
70248;BME280;57641;51.416;5.506;2023-01-25T11:16:57;103473.50;;;5.40;54.42
70248;BME280;57641;51.416;5.506;2023-01-25T11:19:37;103470.47;;;5.51;54.37
70248;BME280;57641;51.416;5.506;2023-01-25T11:24:45;103461.16;;;5.64;53.86
70248;BME280;57641;51.416;5.506;2023-01-25T11:29:42;103465.03;;;5.77;53.22
70248;BME280;57641;51.416;5.506;2023-01-25T11:32:19;103453.00;;;5.70;53.75
70248;BME280;57641;51.416;5.506;2023-01-25T11:34:48;103441.31;;;5.76;53.91
70248;BME280;57641;51.416;5.506;2023-01-25T11:40:27;103429.56;;;5.60;53.98
70248;BME280;57641;51.416;5.506;2023-01-25T11:43:41;103421.34;;;5.44;54.32
70248;BME280;57641;51.416;5.506;2023-01-25T11:46:06;103411.78;;;5.40;54.30
70248;BME280;57641;51.416;5.506;2023-01-25T11:57:12;103385.72;;;5.29;54.94
70248;BME280;57641;51.416;5.506;2023-01-25T12:00:02;103385.16;;;5.21;54.82
70248;BME280;57641;51.416;5.506;2023-01-25T12:02:43;103379.13;;;5.18;54.84
70248;BME280;57641;51.416;5.506;2023-01-25T12:05:31;103377.88;;;5.28;55.67
70248;BME280;57641;51.416;5.506;2023-01-25T12:14:09;103356.47;;;5.10;55.26
70248;BME280;57641;51.416;5.506;2023-01-25T12:17:04;103346.47;;;5.19;55.54
70248;BME280;57641;51.416;5.506;2023-01-25T12:28:33;103308.78;;;5.35;54.55
70248;BME280;57641;51.416;5.506;2023-01-25T12:31:01;103302.81;;;5.30;55.34
70248;BME280;57641;51.416;5.506;2023-01-25T12:33:37;103295.50;;;5.37;54.77
70248;BME280;57641;51.416;5.506;2023-01-25T12:36:33;103292.94;;;5.35;54.73
70248;BME280;57641;51.416;5.506;2023-01-25T12:39:07;103299.13;;;5.34;54.43
70248;BME280;57641;51.416;5.506;2023-01-25T12:41:40;103292.00;;;5.36;53.83
70248;BME280;57641;51.416;5.506;2023-01-25T12:44:22;103280.38;;;5.40;53.15
70248;BME280;57641;51.416;5.506;2023-01-25T12:52:38;103269.94;;;5.37;54.36
70248;BME280;57641;51.416;5.506;2023-01-25T12:55:12;103258.34;;;5.40;54.59
70248;BME280;57641;51.416;5.506;2023-01-25T13:05:57;103227.22;;;5.25;54.25
70248;BME280;57641;51.416;5.506;2023-01-25T13:11:37;103224.34;;;5.31;54.11
70248;BME280;57641;51.416;5.506;2023-01-25T13:14:26;103225.34;;;5.28;54.24
70248;BME280;57641;51.416;5.506;2023-01-25T13:17:19;103224.56;;;5.25;54.88
70248;BME280;57641;51.416;5.506;2023-01-25T13:19:40;103216.16;;;5.37;54.81
70248;BME280;57641;51.416;5.506;2023-01-25T13:22:10;103214.38;;;5.37;54.17
70248;BME280;57641;51.416;5.506;2023-01-25T13:27:32;103199.91;;;5.24;54.08
70248;BME280;57641;51.416;5.506;2023-01-25T13:30:26;103202.22;;;5.12;54.62
70248;BME280;57641;51.416;5.506;2023-01-25T13:32:56;103200.41;;;5.12;54.11
70248;BME280;57641;51.416;5.506;2023-01-25T13:35:32;103206.91;;;5.03;54.24
70248;BME280;57641;51.416;5.506;2023-01-25T13:40:41;103197.16;;;5.05;54.89
70248;BME280;57641;51.416;5.506;2023-01-25T13:45:43;103192.31;;;5.17;54.06
70248;BME280;57641;51.416;5.506;2023-01-25T13:48:18;103184.78;;;5.06;53.67
70248;BME280;57641;51.416;5.506;2023-01-25T13:51:01;103179.28;;;5.12;53.67
70248;BME280;57641;51.416;5.506;2023-01-25T13:53:29;103176.50;;;5.15;53.80
70248;BME280;57641;51.416;5.506;2023-01-25T13:55:58;103189.72;;;5.15;53.85
70248;BME280;57641;51.416;5.506;2023-01-25T14:00:59;103177.22;;;5.19;53.92
70248;BME280;57641;51.416;5.506;2023-01-25T14:03:40;103164.06;;;5.17;53.96
70248;BME280;57641;51.416;5.506;2023-01-25T14:06:26;103158.66;;;5.20;54.14
70248;BME280;57641;51.416;5.506;2023-01-25T14:08:55;103152.31;;;5.24;54.36
70248;BME280;57641;51.416;5.506;2023-01-25T14:11:25;103158.47;;;5.25;53.66
70248;BME280;57641;51.416;5.506;2023-01-25T14:16:28;103157.50;;;5.27;54.42
70248;BME280;57641;51.416;5.506;2023-01-25T14:18:56;103159.22;;;5.28;54.30
70248;BME280;57641;51.416;5.506;2023-01-25T14:21:25;103161.72;;;5.31;53.79
70248;BME280;57641;51.416;5.506;2023-01-25T14:23:51;103152.94;;;5.31;53.82
70248;BME280;57641;51.416;5.506;2023-01-25T14:28:55;103155.47;;;5.12;53.47
70248;BME280;57641;51.416;5.506;2023-01-25T14:31:24;103161.88;;;5.06;53.90
70248;BME280;57641;51.416;5.506;2023-01-25T14:33:51;103157.97;;;4.93;53.58
70248;BME280;57641;51.416;5.506;2023-01-25T14:36:28;103163.06;;;4.98;54.67
70248;BME280;57641;51.416;5.506;2023-01-25T14:38:55;103163.03;;;4.99;54.53
70248;BME280;57641;51.416;5.506;2023-01-25T14:41:36;103160.31;;;5.01;54.79
70248;BME280;57641;51.416;5.506;2023-01-25T14:44:04;103168.47;;;4.50;54.92
70248;BME280;57641;51.416;5.506;2023-01-25T14:46:35;103158.41;;;4.83;55.20
70248;BME280;57641;51.416;5.506;2023-01-25T14:49:18;103153.31;;;5.00;55.29